Time;durP1;ratioP1;P1;durP2;ratioP2;P2;SDS_P1;SDS_P2;PMS_P1;PMS_P2;Temp;Humidity;BMP_temperature;BMP_pressure;BME280_temperature;BME280_humidity;BME280_pressure;Samples;Min_cycle;Max_cycle;Signal;HPM_P1;HPM_P2
2023/03/04 00:07:24;;;;;;;3.55;1.35;;;;;;;17.01;46.11;102186.84;20471417;28;20059;-93
2023/03/04 00:17:28;;;;;;;4.20;1.17;;;;;;;16.78;46.21;102152.38;20480316;28;20058;-95
2023/03/04 00:27:30;;;;;;;2.90;1.30;;;;;;;17.02;46.16;102172.44;20445885;28;20091;-95
2023/03/04 00:37:31;;;;;;;2.78;1.05;;;;;;;17.01;46.13;102170.72;20402330;28;20058;-95
2023/03/04 00:47:33;;;;;;;4.07;1.02;;;;;;;16.72;46.12;102114.25;20402254;28;20056;-95
2023/03/04 00:57:34;;;;;;;5.13;1.50;;;;;;;17.01;45.90;102174.25;20398259;28;20055;-94
2023/03/04 01:07:37;;;;;;;3.35;0.90;;;;;;;17.01;45.89;102168.03;20475357;28;20051;-94
2023/03/04 01:17:38;;;;;;;4.28;1.48;;;;;;;17.00;46.03;102163.59;20484060;28;20050;-93
2023/03/04 01:27:40;;;;;;;3.38;1.08;;;;;;;16.78;45.86;102111.16;20438406;28;20053;-93
2023/03/04 01:37:42;;;;;;;3.28;1.05;;;;;;;17.00;45.96;102144.78;20465712;28;20063;-94
2023/03/04 01:47:47;;;;;;;3.40;1.42;;;;;;;16.99;45.87;102127.75;20513639;28;20451;-93
2023/03/04 01:57:50;;;;;;;3.20;0.80;;;;;;;17.00;45.80;102117.88;20467655;28;20043;-94
2023/03/04 02:07:53;;;;;;;4.32;1.10;;;;;;;16.99;45.89;102113.44;20451819;28;20496;-95
2023/03/04 02:17:58;;;;;;;3.03;1.08;;;;;;;16.98;45.88;102106.34;20488391;28;20130;-95
2023/03/04 02:27:59;;;;;;;3.40;1.00;;;;;;;16.98;45.71;102092.91;20466628;28;20051;-93
2023/03/04 02:38:01;;;;;;;3.55;0.93;;;;;;;16.91;45.87;102071.75;20458452;28;20523;-94
2023/03/04 02:48:03;;;;;;;4.70;1.15;;;;;;;16.96;45.82;102093.81;20506722;28;20035;-94
2023/03/04 02:58:05;;;;;;;3.75;1.30;;;;;;;16.96;45.73;102080.38;20499083;28;20047;-94
2023/03/04 03:08:06;;;;;;;3.72;1.00;;;;;;;16.97;45.89;102081.22;20485170;28;20043;-94
2023/03/04 03:18:09;;;;;;;3.50;1.25;;;;;;;16.96;45.84;102074.13;20484840;28;20043;-96
2023/03/04 03:28:11;;;;;;;2.75;0.98;;;;;;;16.68;45.78;102006.88;20489935;28;20051;-95
2023/03/04 03:38:13;;;;;;;3.13;0.85;;;;;;;16.84;45.77;102019.34;20471621;28;20067;-93
2023/03/04 03:48:14;;;;;;;3.20;0.98;;;;;;;16.96;45.81;102044.53;20522128;28;20051;-95
2023/03/04 03:58:16;;;;;;;3.00;1.00;;;;;;;16.95;45.78;102035.63;20488392;28;20420;-94
2023/03/04 04:08:17;;;;;;;3.00;1.10;;;;;;;16.93;45.86;102026.78;20498060;28;20070;-91
2023/03/04 04:18:19;;;;;;;2.50;0.90;;;;;;;16.74;45.95;101999.38;20473460;28;20137;-89
2023/03/04 04:28:21;;;;;;;3.17;0.70;;;;;;;16.94;45.94;102031.19;20476594;28;20054;-95
2023/03/04 04:38:23;;;;;;;2.20;0.75;;;;;;;16.94;45.85;102036.56;20446668;28;20055;-95
2023/03/04 04:48:25;;;;;;;3.78;1.27;;;;;;;16.61;45.89;101972.47;20513345;28;20145;-96
2023/03/04 04:58:28;;;;;;;2.42;0.70;;;;;;;16.83;45.82;102009.53;20509281;28;20043;-94
2023/03/04 05:08:29;;;;;;;3.15;1.00;;;;;;;16.93;45.98;102021.41;20500896;28;20051;-94
2023/03/04 05:18:31;;;;;;;2.60;0.75;;;;;;;16.90;46.04;102005.47;20490733;28;20083;-94
2023/03/04 05:28:33;;;;;;;3.33;0.75;;;;;;;16.93;45.99;102005.25;20501592;28;20062;-95
2023/03/04 05:38:35;;;;;;;2.83;1.27;;;;;;;16.92;46.11;102003.53;20469832;28;20496;-95
2023/03/04 05:48:36;;;;;;;1.88;0.88;;;;;;;16.85;46.17;101986.09;20495573;28;20046;-94
2023/03/04 05:58:38;;;;;;;2.97;0.80;;;;;;;16.81;46.27;101998.88;20502447;28;20059;-93
2023/03/04 06:08:39;;;;;;;3.05;1.00;;;;;;;16.92;46.41;102005.34;20430089;28;20107;-95
2023/03/04 06:18:41;;;;;;;2.30;0.60;;;;;;;16.91;46.56;102004.50;20452297;28;20065;-94
2023/03/04 06:28:43;;;;;;;2.30;0.70;;;;;;;16.85;46.70;102004.91;20492060;28;20106;-91
2023/03/04 06:38:44;;;;;;;1.75;0.60;;;;;;;16.82;46.61;102002.44;20480205;28;20563;-85
2023/03/04 06:48:48;;;;;;;1.60;0.52;;;;;;;16.91;46.86;102004.50;20471063;28;20610;-94
2023/03/04 06:58:50;;;;;;;2.40;0.90;;;;;;;16.83;46.86;102012.22;20465782;28;20464;-90
2023/03/04 07:08:52;;;;;;;1.75;0.57;;;;;;;16.86;46.89;102025.47;20474307;28;20066;-94
2023/03/04 07:18:54;;;;;;;2.20;0.88;;;;;;;16.88;47.00;102023.53;20470502;28;20051;-94
2023/03/04 07:28:58;;;;;;;1.95;0.63;;;;;;;16.91;47.20;102036.78;20459402;28;20697;-94
2023/03/04 07:38:59;;;;;;;0.95;0.40;;;;;;;16.92;47.35;102022.38;20474499;28;20047;-95
2023/03/04 07:49:01;;;;;;;1.60;0.60;;;;;;;16.95;47.32;102035.63;20517024;28;20047;-94
2023/03/04 07:59:03;;;;;;;2.00;0.60;;;;;;;16.93;47.70;102037.53;20491565;28;20133;-96
2023/03/04 08:09:06;;;;;;;2.63;0.70;;;;;;;16.93;47.82;102048.31;20485015;28;20051;-94
2023/03/04 08:19:07;;;;;;;2.35;0.70;;;;;;;16.82;47.86;102034.72;20495103;28;20057;-88
2023/03/04 08:29:12;;;;;;;1.70;0.40;;;;;;;16.94;48.00;102047.34;20448167;28;20512;-91
2023/03/04 08:39:17;;;;;;;2.20;0.70;;;;;;;16.94;48.27;102055.41;20468433;28;20059;-95
2023/03/04 08:49:19;;;;;;;1.33;0.40;;;;;;;16.95;48.58;102051.75;20428121;28;20290;-93
2023/03/04 08:59:20;;;;;;;1.90;0.50;;;;;;;16.95;49.14;102062.50;20427033;28;20066;-94
2023/03/04 09:09:22;;;;;;;3.08;0.70;;;;;;;16.86;49.51;102047.00;20438882;28;20055;-86
2023/03/04 09:19:24;;;;;;;1.08;0.60;;;;;;;16.98;50.11;102066.00;20433518;28;20051;-86
2023/03/04 09:29:25;;;;;;;3.20;0.73;;;;;;;17.04;52.47;102060.19;20464322;28;20102;-95
2023/03/04 09:39:27;;;;;;;2.72;0.70;;;;;;;17.06;52.61;102063.66;20640607;23;20067;-88
2023/03/04 09:49:29;;;;;;;4.95;1.10;;;;;;;17.04;52.71;102076.34;20532752;28;20436;-94
2023/03/04 09:59:44;;;;;;;3.88;1.63;;;;;;;17.03;52.59;102080.88;20502652;29;20051;-95
2023/03/04 10:09:55;;;;;;;3.55;0.77;;;;;;;16.89;52.29;102046.78;20532172;28;20048;-95
2023/03/04 10:20:06;;;;;;;3.42;1.15;;;;;;;17.00;52.04;102058.69;20471358;28;20048;-95
2023/03/04 10:30:18;;;;;;;2.08;0.90;;;;;;;17.01;51.73;102079.25;20482623;28;20043;-95
2023/03/04 10:40:25;;;;;;;3.72;1.10;;;;;;;17.01;51.47;102065.78;20446943;28;20047;-94
2023/03/04 10:50:27;;;;;;;3.27;0.80;;;;;;;17.00;50.95;102058.69;20477658;28;20111;-93
2023/03/04 11:00:32;;;;;;;4.30;1.10;;;;;;;16.67;50.86;102015.91;20482009;28;20043;-92
2023/03/04 11:10:39;;;;;;;2.30;0.90;;;;;;;16.96;50.41;102057.97;20503350;23;20035;-86
2023/03/04 11:52:44;;;;;;;1.70;0.73;;;;;;;17.18;49.65;102043.97;23446011;23;20032;-79
2023/03/04 12:03:09;;;;;;;3.70;1.20;;;;;;;17.21;49.54;102037.53;20420394;28;20310;-83
2023/03/04 12:13:23;;;;;;;3.33;1.10;;;;;;;17.23;49.27;102016.78;20404687;29;20104;-83
2023/03/04 12:23:38;;;;;;;2.95;1.10;;;;;;;17.14;49.08;101988.66;20359496;29;20059;-94
2023/03/04 12:33:54;;;;;;;2.63;1.30;;;;;;;17.03;48.88;101956.25;20299927;29;20447;-95
2023/03/04 12:44:05;;;;;;;2.25;0.85;;;;;;;17.27;48.82;102003.97;20428458;23;20100;-92
2023/03/04 12:54:16;;;;;;;2.72;0.95;;;;;;;14.41;48.68;101520.44;20397127;23;20059;-92
2023/03/04 13:04:31;;;;;;;1.63;0.90;;;;;;;16.89;48.72;101933.81;20404175;28;20559;-94
2023/03/04 13:14:33;;;;;;;4.47;1.17;;;;;;;16.92;48.72;101916.59;20383479;29;20063;-94
2023/03/04 13:24:45;;;;;;;1.83;0.98;;;;;;;17.30;48.37;101999.22;20359900;29;20052;-95
2023/03/04 13:45:34;;;;;;;;;;;;;;;17.32;48.58;101967.69;20434141;29;20043;-91
2023/03/04 13:55:42;;;;;;;2.17;1.05;;;;;;;17.32;48.69;101958.78;20385336;29;19930;-92
2023/03/04 14:05:43;;;;;;;2.92;1.30;;;;;;;17.22;48.66;101955.84;20383718;29;20567;-92
2023/03/04 14:15:54;;;;;;;3.55;1.45;;;;;;;17.33;48.57;101984.72;20441543;29;20445;-93
2023/03/04 14:26:11;;;;;;;3.25;1.35;;;;;;;17.33;48.18;101955.97;20438542;29;20083;-92
2023/03/04 14:36:18;;;;;;;4.63;1.40;;;;;;;17.33;48.18;101955.09;20379096;29;20090;-92
2023/03/04 14:46:21;;;;;;;3.67;1.10;;;;;;;17.34;48.14;101948.75;20351394;29;20059;-94
2023/03/04 14:56:28;;;;;;;2.05;1.13;;;;;;;17.34;48.08;101938.00;20331512;29;20052;-92
2023/03/04 15:06:35;;;;;;;2.20;1.10;;;;;;;17.34;47.83;101935.31;20306604;29;20088;-93
2023/03/04 15:16:57;;;;;;;2.70;1.13;;;;;;;17.33;47.77;101934.44;20336748;29;20068;-92
2023/03/04 15:26:59;;;;;;;3.03;1.02;;;;;;;17.34;47.75;101921.84;20269087;29;20052;-85
2023/03/04 15:37:01;;;;;;;3.22;1.08;;;;;;;17.23;47.64;101901.94;20332291;29;20550;-92
2023/03/04 15:47:02;;;;;;;2.35;1.08;;;;;;;17.30;47.54;101921.19;20315083;29;20051;-89
2023/03/04 15:57:11;;;;;;;2.67;0.90;;;;;;;17.32;47.65;101924.63;20353102;29;20119;-87
2023/03/04 16:07:19;;;;;;;4.63;1.10;;;;;;;16.89;47.49;101855.81;20291887;29;20079;-96
2023/03/04 16:17:20;;;;;;;2.72;1.30;;;;;;;17.34;47.43;101929.91;20313727;29;20064;-85
2023/03/04 16:27:23;;;;;;;4.28;1.80;;;;;;;17.50;47.98;101944.00;20293219;29;20781;-86
2023/03/04 16:37:25;;;;;;;3.78;1.50;;;;;;;17.56;47.96;101904.16;20261785;29;20405;-88
2023/03/04 16:47:26;;;;;;;4.15;1.58;;;;;;;17.85;48.42;101944.31;20288413;29;20096;-89
2023/03/04 16:57:30;;;;;;;2.70;1.45;;;;;;;17.83;48.58;101926.41;20278255;29;20059;-92
2023/03/04 17:07:32;;;;;;;5.57;2.28;;;;;;;17.72;48.38;101920.06;20283501;29;22065;-92
2023/03/04 17:17:33;;;;;;;3.75;1.60;;;;;;;17.52;48.30;101901.69;20287509;29;20503;-93
2023/03/04 17:27:35;;;;;;;2.28;1.10;;;;;;;17.43;48.41;101898.78;20302803;29;20045;-91
2023/03/04 17:37:37;;;;;;;3.15;1.05;;;;;;;17.42;48.28;101903.31;20292497;29;20100;-89
2023/03/04 17:47:38;;;;;;;2.85;1.10;;;;;;;17.49;48.35;101920.75;20278748;29;20497;-88
2023/03/04 17:57:41;;;;;;;3.17;1.00;;;;;;;17.45;48.27;101924.63;20290503;29;20048;-87
2023/03/04 18:07:42;;;;;;;2.05;1.00;;;;;;;17.32;48.45;101913.00;20283266;29;20181;-93
2023/03/04 18:17:44;;;;;;;2.75;1.30;;;;;;;17.14;48.19;101882.88;20301798;29;20103;-90
2023/03/04 18:27:46;;;;;;;3.17;1.33;;;;;;;17.15;48.08;101893.50;20284185;29;20454;-91
2023/03/04 18:37:49;;;;;;;3.42;1.30;;;;;;;17.33;47.78;101922.81;20307326;29;20063;-93
2023/03/04 18:47:51;;;;;;;3.47;1.13;;;;;;;17.24;48.03;101918.91;20291768;29;20103;-90
2023/03/04 18:57:54;;;;;;;3.47;1.33;;;;;;;17.24;47.75;101919.81;20324481;29;20044;-91
2023/03/04 19:07:56;;;;;;;3.75;1.30;;;;;;;17.21;47.72;101917.28;20306718;29;20111;-85
2023/03/04 19:17:57;;;;;;;4.20;1.35;;;;;;;17.21;47.71;101921.84;20314761;29;20044;-92
2023/03/04 19:27:59;;;;;;;4.40;1.27;;;;;;;17.19;47.51;101919.22;20314526;29;20048;-90
2023/03/04 19:38:01;;;;;;;2.85;1.30;;;;;;;17.18;47.43;101922.03;20299475;29;20469;-91
2023/03/04 19:48:03;;;;;;;2.38;1.00;;;;;;;17.18;47.51;101908.59;20321171;29;20668;-90
2023/03/04 19:58:04;;;;;;;2.20;1.17;;;;;;;17.12;47.59;101900.94;20289716;29;20490;-87
2023/03/04 20:08:06;;;;;;;2.65;1.05;;;;;;;17.12;47.22;101907.19;20300575;29;20059;-89
2023/03/04 20:18:07;;;;;;;2.30;1.20;;;;;;;17.15;47.53;101901.59;20278995;29;20060;-89
2023/03/04 20:28:09;;;;;;;3.08;1.23;;;;;;;16.51;47.63;101792.09;20328274;29;20486;-89
2023/03/04 20:38:13;;;;;;;3.35;1.30;;;;;;;17.14;47.56;101899.00;20332486;29;20465;-90
2023/03/04 20:48:17;;;;;;;2.90;1.47;;;;;;;17.13;47.61;101889.22;20302927;29;20052;-89
2023/03/04 20:58:20;;;;;;;2.83;0.98;;;;;;;16.80;47.61;101833.09;20334206;29;20054;-90
2023/03/04 21:08:21;;;;;;;2.67;0.93;;;;;;;17.01;47.53;101847.88;20329629;29;20063;-90
2023/03/04 21:18:24;;;;;;;2.88;1.20;;;;;;;17.11;47.46;101875.84;20333163;29;20502;-90
2023/03/04 21:28:27;;;;;;;2.67;1.10;;;;;;;17.11;47.30;101862.41;20322680;29;20048;-89
2023/03/04 21:38:28;;;;;;;3.05;1.00;;;;;;;17.11;47.51;101857.03;20299822;29;1063316;-91
2023/03/04 21:48:30;;;;;;;6.40;1.40;;;;;;;17.10;47.36;101847.22;20325657;29;20044;-90
2023/03/04 21:58:33;;;;;;;1.90;0.93;;;;;;;17.10;47.46;101834.66;20303065;29;20110;-84
2023/03/04 22:08:36;;;;;;;2.38;0.82;;;;;;;17.11;47.30;101840.88;20311471;29;20091;-90
2023/03/04 22:18:39;;;;;;;1.83;0.63;;;;;;;17.09;47.28;101832.06;20328602;29;20055;-89
2023/03/04 22:28:41;;;;;;;1.90;0.98;;;;;;;17.10;47.38;101833.78;20327108;29;20139;-89
2023/03/04 22:38:43;;;;;;;2.83;0.88;;;;;;;17.08;47.23;101830.34;20338051;29;20527;-89
2023/03/04 22:48:47;;;;;;;2.30;1.45;;;;;;;17.08;47.13;101808.81;20350661;29;20055;-90
2023/03/04 22:58:49;;;;;;;2.13;0.90;;;;;;;17.08;47.27;101814.19;20354179;29;20052;-89
2023/03/04 23:08:51;;;;;;;1.95;0.90;;;;;;;17.07;47.11;101785.56;20321933;29;20410;-89
2023/03/04 23:18:53;;;;;;;2.30;0.80;;;;;;;17.06;47.18;101782.03;20347252;29;20107;-90
2023/03/04 23:28:55;;;;;;;2.65;1.02;;;;;;;16.79;47.05;101722.94;20314820;29;20430;-90
2023/03/04 23:38:58;;;;;;;2.28;0.90;;;;;;;17.06;46.99;101754.25;20307580;29;20481;-91
2023/03/04 23:48:59;;;;;;;1.73;0.60;;;;;;;17.05;47.05;101750.72;20419025;29;20036;-86
2023/03/04 23:59:02;;;;;;;1.75;0.68;;;;;;;17.06;47.02;101740.81;20436581;29;20043;-82
